createdAt,value
2022-12-31T00:00:57.705Z,10.76
2022-12-31T00:01:57.760Z,10.75
2022-12-31T00:02:57.817Z,10.74
2022-12-31T00:03:57.651Z,10.73
2022-12-31T00:04:57.646Z,10.73
2022-12-31T00:05:57.644Z,10.72
2022-12-31T00:06:57.614Z,10.71
2022-12-31T00:07:57.608Z,10.71
2022-12-31T00:08:57.595Z,10.71
2022-12-31T00:09:57.588Z,10.71
2022-12-31T00:10:57.590Z,10.72
2022-12-31T00:11:57.560Z,10.73
2022-12-31T00:12:57.550Z,10.74
2022-12-31T00:13:57.539Z,10.74
2022-12-31T00:14:57.540Z,10.75
2022-12-31T00:15:57.526Z,10.75
2022-12-31T00:16:57.551Z,10.76
2022-12-31T00:17:57.501Z,10.77
2022-12-31T00:18:57.479Z,10.79
2022-12-31T00:19:57.486Z,10.81
2022-12-31T00:20:57.490Z,10.83
2022-12-31T00:21:57.462Z,10.84
2022-12-31T00:22:57.456Z,10.85
2022-12-31T00:23:57.440Z,10.86
2022-12-31T00:24:57.430Z,10.87
2022-12-31T00:25:57.422Z,10.88
2022-12-31T00:26:57.409Z,10.90
2022-12-31T00:27:57.391Z,10.91
2022-12-31T00:28:57.387Z,10.93
2022-12-31T00:30:04.134Z,10.94
2022-12-31T00:30:58.386Z,10.95
2022-12-31T00:31:57.338Z,10.96
2022-12-31T00:32:57.328Z,10.97
2022-12-31T00:33:57.323Z,10.97
2022-12-31T00:34:57.300Z,10.97
2022-12-31T00:35:57.308Z,10.97
2022-12-31T00:36:57.283Z,10.97
2022-12-31T00:37:57.276Z,10.96
2022-12-31T00:38:57.265Z,10.96
2022-12-31T00:39:57.269Z,10.96
2022-12-31T00:40:57.275Z,10.96
2022-12-31T00:41:57.238Z,10.96
2022-12-31T00:42:57.221Z,10.97
2022-12-31T00:43:57.220Z,10.97
2022-12-31T00:44:57.211Z,10.97
2022-12-31T00:45:58.088Z,10.97
2022-12-31T00:46:57.202Z,10.97
2022-12-31T00:47:57.169Z,10.97
2022-12-31T00:48:57.155Z,10.98
2022-12-31T00:49:57.148Z,10.98
2022-12-31T00:50:57.146Z,10.99
2022-12-31T00:51:57.113Z,10.99
2022-12-31T00:52:57.124Z,11.01
2022-12-31T00:53:57.107Z,11.02
2022-12-31T00:54:57.082Z,11.04
2022-12-31T00:55:57.089Z,11.06
2022-12-31T00:56:57.079Z,11.08
2022-12-31T00:57:57.049Z,11.10
2022-12-31T00:58:57.039Z,11.12
2022-12-31T00:59:57.028Z,11.15
2022-12-31T01:00:57.125Z,11.17
2022-12-31T01:01:57.143Z,11.20
2022-12-31T01:02:57.067Z,11.23
2022-12-31T01:03:57.017Z,11.26
2022-12-31T01:04:56.990Z,11.28
2022-12-31T01:05:56.980Z,11.30
2022-12-31T01:06:56.963Z,11.33
2022-12-31T01:07:56.946Z,11.35
2022-12-31T01:08:56.936Z,11.37
2022-12-31T01:09:56.927Z,11.40
2022-12-31T01:10:56.919Z,11.42
2022-12-31T01:11:56.898Z,11.43
2022-12-31T01:12:56.889Z,11.44
2022-12-31T01:13:56.891Z,11.44
2022-12-31T01:14:56.885Z,11.43
2022-12-31T01:15:56.891Z,11.43
2022-12-31T01:16:56.876Z,11.42
2022-12-31T01:17:56.831Z,11.42
2022-12-31T01:18:56.845Z,11.43
2022-12-31T01:19:56.817Z,11.44
2022-12-31T01:20:56.816Z,11.45
2022-12-31T01:21:56.796Z,11.46
2022-12-31T01:22:56.772Z,11.47
2022-12-31T01:23:56.786Z,11.48
2022-12-31T01:24:56.756Z,11.49
2022-12-31T01:25:56.776Z,11.49
2022-12-31T01:26:56.743Z,11.49
2022-12-31T01:27:56.731Z,11.49
2022-12-31T01:28:56.753Z,11.49
2022-12-31T01:29:56.710Z,11.49
2022-12-31T01:30:56.771Z,11.49
2022-12-31T01:31:56.698Z,11.49
2022-12-31T01:32:56.676Z,11.49
2022-12-31T01:33:56.667Z,11.50
2022-12-31T01:34:56.668Z,11.51
2022-12-31T01:35:56.658Z,11.52
2022-12-31T01:36:56.655Z,11.52
2022-12-31T01:37:56.636Z,11.53
2022-12-31T01:38:56.606Z,11.54
2022-12-31T01:39:56.616Z,11.55
2022-12-31T01:40:56.606Z,11.55
2022-12-31T01:41:56.577Z,11.55
2022-12-31T01:42:56.559Z,11.55
2022-12-31T01:43:56.555Z,11.55
2022-12-31T01:44:56.549Z,11.54
2022-12-31T01:45:56.620Z,11.54
2022-12-31T01:46:56.547Z,11.53
2022-12-31T01:47:56.522Z,11.53
2022-12-31T01:48:56.519Z,11.53
2022-12-31T01:49:56.495Z,11.53
2022-12-31T01:50:56.492Z,11.53
2022-12-31T01:51:56.483Z,11.53
2022-12-31T01:52:56.465Z,11.53
2022-12-31T01:53:56.445Z,11.53
2022-12-31T01:54:56.427Z,11.52
2022-12-31T01:55:56.428Z,11.52
2022-12-31T01:56:56.451Z,11.50
2022-12-31T01:57:56.393Z,11.48
2022-12-31T01:58:56.389Z,11.46
2022-12-31T01:59:56.388Z,11.44
2022-12-31T02:00:56.459Z,11.42
2022-12-31T02:01:56.454Z,11.41
2022-12-31T02:02:56.392Z,11.40
2022-12-31T02:03:56.337Z,11.39
2022-12-31T02:04:56.318Z,11.38
2022-12-31T02:05:56.352Z,11.38
2022-12-31T02:06:56.321Z,11.39
2022-12-31T02:07:56.310Z,11.40
2022-12-31T02:08:56.286Z,11.40
2022-12-31T02:09:56.269Z,11.41
2022-12-31T02:10:56.265Z,11.42
2022-12-31T02:11:56.275Z,11.42
2022-12-31T02:12:56.236Z,11.42
2022-12-31T02:13:58.619Z,11.43
2022-12-31T02:14:56.219Z,11.44
2022-12-31T02:15:56.231Z,11.45
2022-12-31T02:16:56.229Z,11.46
2022-12-31T02:17:56.190Z,11.46
2022-12-31T02:18:56.177Z,11.47
2022-12-31T02:19:56.157Z,11.48
2022-12-31T02:20:56.146Z,11.50
2022-12-31T02:21:56.144Z,11.52
2022-12-31T02:22:56.137Z,11.54
2022-12-31T02:23:56.117Z,11.55
2022-12-31T02:24:56.107Z,11.56
2022-12-31T02:25:56.108Z,11.57
2022-12-31T02:26:56.098Z,11.57
2022-12-31T02:27:56.066Z,11.58
2022-12-31T02:28:56.088Z,11.58
2022-12-31T02:29:56.052Z,11.59
2022-12-31T02:30:56.097Z,11.61
2022-12-31T02:31:56.041Z,11.62
2022-12-31T02:32:56.023Z,11.64
2022-12-31T02:33:56.006Z,11.65
2022-12-31T02:34:55.999Z,11.68
2022-12-31T02:35:55.982Z,11.70
2022-12-31T02:36:55.995Z,11.72
2022-12-31T02:37:55.990Z,11.73
2022-12-31T02:38:55.948Z,11.75
2022-12-31T02:39:55.958Z,11.76
2022-12-31T02:40:55.937Z,11.78
2022-12-31T02:41:55.918Z,11.78
2022-12-31T02:42:55.997Z,11.79
2022-12-31T02:43:55.909Z,11.80
2022-12-31T02:44:55.919Z,11.80
2022-12-31T02:45:55.904Z,11.81
2022-12-31T02:46:55.889Z,11.82
2022-12-31T02:47:55.933Z,11.83
2022-12-31T02:48:55.839Z,11.83
2022-12-31T02:49:55.913Z,11.84
2022-12-31T02:50:55.865Z,11.85
2022-12-31T02:51:55.813Z,11.86
2022-12-31T02:52:55.814Z,11.88
2022-12-31T02:53:55.784Z,11.90
2022-12-31T02:54:55.780Z,11.92
2022-12-31T02:55:55.760Z,11.94
2022-12-31T02:56:55.762Z,11.96
2022-12-31T02:57:55.787Z,11.98
2022-12-31T02:58:55.738Z,11.99
2022-12-31T02:59:55.722Z,12.00
2022-12-31T03:00:55.905Z,12.01
2022-12-31T03:01:55.810Z,12.02
2022-12-31T03:02:55.779Z,12.04
2022-12-31T03:03:55.674Z,12.06
2022-12-31T03:04:55.660Z,12.08
2022-12-31T03:05:55.664Z,12.10
2022-12-31T03:06:55.666Z,12.11
2022-12-31T03:07:55.641Z,12.12
2022-12-31T03:08:55.630Z,12.13
2022-12-31T03:09:55.610Z,12.14
2022-12-31T03:10:55.596Z,12.15
2022-12-31T03:11:55.590Z,12.15
2022-12-31T03:12:55.594Z,12.16
2022-12-31T03:13:55.570Z,12.17
2022-12-31T03:14:55.553Z,12.18
2022-12-31T03:15:55.635Z,12.19
2022-12-31T03:16:55.534Z,12.21
2022-12-31T03:17:55.548Z,12.24
2022-12-31T03:18:55.532Z,12.26
2022-12-31T03:19:55.519Z,12.28
2022-12-31T03:20:55.508Z,12.30
2022-12-31T03:21:55.492Z,12.31
2022-12-31T03:22:55.496Z,12.31
2022-12-31T03:23:55.476Z,12.31
2022-12-31T03:24:55.446Z,12.31
2022-12-31T03:25:55.446Z,12.30
2022-12-31T03:26:55.425Z,12.29
2022-12-31T03:27:55.426Z,12.29
2022-12-31T03:28:55.418Z,12.28
2022-12-31T03:29:55.396Z,12.28
2022-12-31T03:30:55.386Z,12.29
2022-12-31T03:31:55.392Z,12.29
2022-12-31T03:32:55.359Z,12.30
2022-12-31T03:33:55.365Z,12.30
2022-12-31T03:34:55.335Z,12.30
2022-12-31T03:35:55.328Z,12.31
2022-12-31T03:36:55.344Z,12.31
2022-12-31T03:37:55.315Z,12.31
2022-12-31T03:38:55.322Z,12.30
2022-12-31T03:39:55.299Z,12.29
2022-12-31T03:40:55.274Z,12.29
2022-12-31T03:41:55.283Z,12.29
2022-12-31T03:42:55.264Z,12.29
2022-12-31T03:43:55.274Z,12.30
2022-12-31T03:44:55.229Z,12.32
2022-12-31T03:45:55.269Z,12.34
2022-12-31T03:46:55.202Z,12.36
2022-12-31T03:47:55.206Z,12.38
2022-12-31T03:48:55.213Z,12.39
2022-12-31T03:49:55.180Z,12.39
2022-12-31T03:50:55.166Z,12.40
2022-12-31T03:51:55.157Z,12.41
2022-12-31T03:52:55.147Z,12.43
2022-12-31T03:53:55.130Z,12.45
2022-12-31T03:54:55.144Z,12.46
2022-12-31T03:55:55.116Z,12.48
2022-12-31T03:56:59.902Z,12.50
2022-12-31T03:57:56.105Z,12.51
2022-12-31T03:58:55.075Z,12.53
2022-12-31T03:59:55.080Z,12.54
2022-12-31T04:00:55.116Z,12.56
2022-12-31T04:01:55.199Z,12.59
2022-12-31T04:02:55.076Z,12.62
2022-12-31T04:03:55.035Z,12.65
2022-12-31T04:04:55.040Z,12.67
2022-12-31T04:05:55.033Z,12.69
2022-12-31T04:06:54.994Z,12.71
2022-12-31T04:07:55.015Z,12.72
2022-12-31T04:08:54.968Z,12.74
2022-12-31T04:09:54.977Z,12.77
2022-12-31T04:10:54.954Z,12.79
2022-12-31T04:11:54.936Z,12.81
2022-12-31T04:12:54.935Z,12.82
2022-12-31T04:13:54.928Z,12.83
2022-12-31T04:14:54.902Z,12.85
2022-12-31T04:15:54.886Z,12.87
2022-12-31T04:16:54.878Z,12.89
2022-12-31T04:17:54.881Z,12.90
2022-12-31T04:18:54.879Z,12.90
2022-12-31T04:19:54.878Z,12.89
2022-12-31T04:20:54.841Z,12.88
2022-12-31T04:21:54.829Z,12.88
2022-12-31T04:22:54.826Z,12.90
2022-12-31T04:23:54.818Z,12.92
2022-12-31T04:24:54.813Z,12.93
2022-12-31T04:25:54.786Z,12.94
2022-12-31T04:26:54.780Z,12.95
2022-12-31T04:27:54.777Z,12.95
2022-12-31T04:28:54.791Z,12.95
2022-12-31T04:29:54.741Z,12.95
2022-12-31T04:30:54.727Z,12.94
2022-12-31T04:31:54.741Z,12.94
2022-12-31T04:32:54.705Z,12.94
2022-12-31T04:33:54.714Z,12.94
2022-12-31T04:34:54.735Z,12.95
2022-12-31T04:35:54.666Z,12.96
2022-12-31T04:36:54.708Z,12.98
2022-12-31T04:37:54.655Z,12.98
2022-12-31T04:38:54.650Z,12.99
2022-12-31T04:39:56.944Z,13.00
2022-12-31T04:40:55.634Z,13.01
2022-12-31T04:41:54.613Z,13.01
2022-12-31T04:42:54.598Z,13.01
2022-12-31T04:43:54.586Z,13.01
2022-12-31T04:44:54.588Z,13.02
2022-12-31T04:45:54.649Z,13.02
2022-12-31T04:46:54.558Z,13.03
2022-12-31T04:47:54.540Z,13.04
2022-12-31T04:48:54.525Z,13.04
2022-12-31T04:49:54.569Z,13.05
2022-12-31T04:50:54.505Z,13.06
2022-12-31T04:51:54.520Z,13.07
2022-12-31T04:52:54.494Z,13.08
2022-12-31T04:53:54.499Z,13.08
2022-12-31T04:54:54.490Z,13.09
2022-12-31T04:55:54.457Z,13.09
2022-12-31T04:56:54.467Z,13.08
2022-12-31T04:57:54.451Z,13.07
2022-12-31T04:58:54.435Z,13.07
2022-12-31T04:59:54.434Z,13.08
2022-12-31T05:00:54.490Z,13.09
2022-12-31T05:01:54.497Z,13.09
2022-12-31T05:02:54.414Z,13.10
2022-12-31T05:03:54.367Z,13.10
2022-12-31T05:04:54.382Z,13.11
2022-12-31T05:05:54.347Z,13.12
2022-12-31T05:06:54.341Z,13.12
2022-12-31T05:07:54.320Z,13.13
2022-12-31T05:08:54.325Z,13.13
2022-12-31T05:09:54.314Z,13.13
2022-12-31T05:10:54.293Z,13.14
2022-12-31T05:11:54.296Z,13.15
2022-12-31T05:12:54.270Z,13.16
2022-12-31T05:13:54.260Z,13.18
2022-12-31T05:14:54.264Z,13.18
2022-12-31T05:15:54.241Z,13.19
2022-12-31T05:16:54.256Z,13.19
2022-12-31T05:17:54.230Z,13.20
2022-12-31T05:18:54.207Z,13.21
2022-12-31T05:19:54.210Z,13.21
2022-12-31T05:20:54.183Z,13.22
2022-12-31T05:21:54.174Z,13.22
2022-12-31T05:22:54.162Z,13.22
2022-12-31T05:23:54.150Z,13.23
2022-12-31T05:24:54.156Z,13.24
2022-12-31T05:25:54.130Z,13.26
2022-12-31T05:26:54.118Z,13.27
2022-12-31T05:27:54.105Z,13.27
2022-12-31T05:28:54.105Z,13.27
2022-12-31T05:29:54.103Z,13.27
2022-12-31T05:30:54.122Z,13.27
2022-12-31T05:31:54.078Z,13.28
2022-12-31T05:32:54.056Z,13.29
2022-12-31T05:33:54.049Z,13.30
2022-12-31T05:34:54.058Z,13.33
2022-12-31T05:35:54.025Z,13.36
2022-12-31T05:36:54.007Z,13.39
2022-12-31T05:37:53.995Z,13.41
2022-12-31T05:38:53.978Z,13.42
2022-12-31T05:39:53.997Z,13.43
2022-12-31T05:40:53.966Z,13.43
2022-12-31T05:41:53.960Z,13.43
2022-12-31T05:42:53.940Z,13.42
2022-12-31T05:43:53.924Z,13.41
2022-12-31T05:44:53.936Z,13.41
2022-12-31T05:45:53.920Z,13.41
2022-12-31T05:46:53.898Z,13.42
2022-12-31T05:47:53.885Z,13.42
2022-12-31T05:48:53.881Z,13.43
2022-12-31T05:49:53.881Z,13.43
2022-12-31T05:50:53.867Z,13.43
2022-12-31T05:51:53.838Z,13.43
2022-12-31T05:52:53.832Z,13.42
2022-12-31T05:53:53.834Z,13.42
2022-12-31T05:54:53.832Z,13.41
2022-12-31T05:55:53.796Z,13.41
2022-12-31T05:56:53.791Z,13.41
2022-12-31T05:57:53.779Z,13.42
2022-12-31T05:58:53.776Z,13.43
2022-12-31T05:59:53.783Z,13.45
2022-12-31T06:00:53.743Z,13.47
2022-12-31T06:01:53.732Z,13.49
2022-12-31T06:02:53.791Z,13.50
2022-12-31T06:03:53.762Z,13.51
2022-12-31T06:04:53.707Z,13.52
2022-12-31T06:05:53.737Z,13.52
2022-12-31T06:06:53.678Z,13.52
2022-12-31T06:07:53.666Z,13.52
2022-12-31T06:08:53.661Z,13.51
2022-12-31T06:09:53.684Z,13.51
2022-12-31T06:10:53.650Z,13.51
2022-12-31T06:11:53.625Z,13.50
2022-12-31T06:12:53.639Z,13.50
2022-12-31T06:13:53.606Z,13.50
2022-12-31T06:14:53.596Z,13.50
2022-12-31T06:15:53.604Z,13.50
2022-12-31T06:16:53.575Z,13.49
2022-12-31T06:17:53.567Z,13.50
2022-12-31T06:18:53.546Z,13.50
2022-12-31T06:19:53.539Z,13.50
2022-12-31T06:20:53.535Z,13.51
2022-12-31T06:21:53.529Z,13.52
2022-12-31T06:22:53.509Z,13.53
2022-12-31T06:23:53.501Z,13.55
2022-12-31T06:24:53.485Z,13.56
2022-12-31T06:25:53.477Z,13.56
2022-12-31T06:26:53.482Z,13.58
2022-12-31T06:27:53.451Z,13.59
2022-12-31T06:28:53.437Z,13.61
2022-12-31T06:29:53.429Z,13.61
2022-12-31T06:31:00.013Z,13.61
2022-12-31T06:31:53.427Z,13.62
2022-12-31T06:32:53.396Z,13.62
2022-12-31T06:33:53.394Z,13.62
2022-12-31T06:34:53.375Z,13.62
2022-12-31T06:35:53.366Z,13.63
2022-12-31T06:36:53.416Z,13.63
2022-12-31T06:37:53.355Z,13.64
2022-12-31T06:38:53.355Z,13.66
2022-12-31T06:39:53.331Z,13.67
2022-12-31T06:40:53.322Z,13.68
2022-12-31T06:41:53.341Z,13.68
2022-12-31T06:42:59.533Z,13.68
2022-12-31T06:43:54.270Z,13.68
2022-12-31T06:44:53.259Z,13.68
2022-12-31T06:45:53.262Z,13.68
2022-12-31T06:46:53.440Z,13.69
2022-12-31T06:47:53.235Z,13.70
2022-12-31T06:48:53.220Z,13.71
2022-12-31T06:49:53.267Z,13.73
2022-12-31T06:50:53.214Z,13.74
2022-12-31T06:51:53.185Z,13.75
2022-12-31T06:52:53.195Z,13.76
2022-12-31T06:53:53.187Z,13.76
2022-12-31T06:54:53.163Z,13.76
2022-12-31T06:55:53.153Z,13.77
2022-12-31T06:56:53.131Z,13.79
2022-12-31T06:57:53.146Z,13.80
2022-12-31T06:58:53.115Z,13.81
2022-12-31T06:59:53.106Z,13.82
2022-12-31T07:00:53.090Z,13.82
2022-12-31T07:01:53.206Z,13.82
2022-12-31T07:02:53.106Z,13.82
2022-12-31T07:03:53.070Z,13.82
2022-12-31T07:04:53.049Z,13.83
2022-12-31T07:05:53.056Z,13.84
2022-12-31T07:06:53.038Z,13.85
2022-12-31T07:07:53.047Z,13.86
2022-12-31T07:08:53.002Z,13.86
2022-12-31T07:09:53.039Z,13.86
2022-12-31T07:10:52.990Z,13.86
2022-12-31T07:11:52.991Z,13.86
2022-12-31T07:12:52.975Z,13.86
2022-12-31T07:13:52.947Z,13.86
2022-12-31T07:14:52.973Z,13.86
2022-12-31T07:15:52.968Z,13.86
2022-12-31T07:16:52.942Z,13.86
2022-12-31T07:17:52.937Z,13.86
2022-12-31T07:18:52.897Z,13.86
2022-12-31T07:19:57.506Z,13.86
2022-12-31T07:20:53.875Z,13.86
2022-12-31T07:21:52.907Z,13.86
2022-12-31T07:22:52.851Z,13.86
2022-12-31T07:23:52.852Z,13.87
2022-12-31T07:24:52.828Z,13.88
2022-12-31T07:25:52.819Z,13.89
2022-12-31T07:26:56.737Z,13.90
2022-12-31T07:27:52.811Z,13.90
2022-12-31T07:28:52.786Z,13.91
2022-12-31T07:29:52.793Z,13.91
2022-12-31T07:30:52.913Z,13.91
2022-12-31T07:31:52.756Z,13.91
2022-12-31T07:32:52.761Z,13.92
2022-12-31T07:33:52.725Z,13.92
2022-12-31T07:34:52.731Z,13.93
2022-12-31T07:35:52.709Z,13.94
2022-12-31T07:36:52.714Z,13.95
2022-12-31T07:37:52.749Z,13.98
2022-12-31T07:38:52.683Z,14.00
2022-12-31T07:39:52.670Z,14.02
2022-12-31T07:40:52.651Z,14.04
2022-12-31T07:41:52.645Z,14.06
2022-12-31T07:42:52.659Z,14.09
2022-12-31T07:43:55.320Z,14.11
2022-12-31T07:44:54.447Z,14.13
2022-12-31T07:45:55.605Z,14.14
2022-12-31T07:46:52.620Z,14.14
2022-12-31T07:47:55.300Z,14.14
2022-12-31T07:48:53.567Z,14.15
2022-12-31T07:49:52.554Z,14.15
2022-12-31T07:51:15.580Z,14.15
2022-12-31T07:51:52.557Z,14.16
2022-12-31T07:52:52.560Z,14.17
2022-12-31T07:53:52.539Z,14.17
2022-12-31T07:54:52.517Z,14.18
2022-12-31T07:55:52.500Z,14.19
2022-12-31T07:56:52.496Z,14.20
2022-12-31T07:57:52.482Z,14.21
2022-12-31T07:58:52.487Z,14.22
2022-12-31T07:59:52.455Z,14.23
2022-12-31T08:00:52.461Z,14.25
2022-12-31T08:01:52.684Z,14.26
2022-12-31T08:02:52.449Z,14.28
2022-12-31T08:03:52.461Z,14.28
2022-12-31T08:04:52.399Z,14.29
2022-12-31T08:05:52.384Z,14.30
2022-12-31T08:06:52.386Z,14.31
2022-12-31T08:07:52.366Z,14.33
2022-12-31T08:08:52.369Z,14.34
2022-12-31T08:09:52.341Z,14.35
2022-12-31T08:10:52.331Z,14.36
2022-12-31T08:11:52.315Z,14.37
2022-12-31T08:12:52.300Z,14.38
2022-12-31T08:13:52.322Z,14.39
2022-12-31T08:14:52.296Z,14.40
2022-12-31T08:15:52.363Z,14.41
2022-12-31T08:16:52.278Z,14.42
2022-12-31T08:17:52.249Z,14.43
2022-12-31T08:18:52.242Z,14.44
2022-12-31T08:19:52.234Z,14.44
2022-12-31T08:20:52.217Z,14.44
2022-12-31T08:21:52.223Z,14.44
2022-12-31T08:22:52.206Z,14.43
2022-12-31T08:23:52.198Z,14.43
2022-12-31T08:24:52.170Z,14.43
2022-12-31T08:25:52.254Z,14.43
2022-12-31T08:26:53.357Z,14.43
2022-12-31T08:27:52.142Z,14.44
2022-12-31T08:28:52.156Z,14.45
2022-12-31T08:29:52.133Z,14.46
2022-12-31T08:30:52.106Z,14.47
2022-12-31T08:31:52.201Z,14.47
2022-12-31T08:32:52.086Z,14.47
2022-12-31T08:33:52.124Z,14.47
2022-12-31T08:34:52.063Z,14.46
2022-12-31T08:35:52.056Z,14.47
2022-12-31T08:36:52.049Z,14.48
2022-12-31T08:37:52.031Z,14.48
2022-12-31T08:38:52.023Z,14.49
2022-12-31T08:39:52.045Z,14.49
2022-12-31T08:40:52.012Z,14.49
2022-12-31T08:41:52.001Z,14.50
2022-12-31T08:42:51.979Z,14.50
2022-12-31T08:43:51.986Z,14.50
2022-12-31T08:44:52.006Z,14.51
2022-12-31T08:45:52.025Z,14.51
2022-12-31T08:46:51.937Z,14.51
2022-12-31T08:47:56.467Z,14.53
2022-12-31T08:48:52.906Z,14.55
2022-12-31T08:49:51.926Z,14.57
2022-12-31T08:50:51.899Z,14.59
2022-12-31T08:51:51.882Z,14.61
2022-12-31T08:52:51.861Z,14.63
2022-12-31T08:53:51.861Z,14.65
2022-12-31T08:54:51.845Z,14.67
2022-12-31T08:55:51.850Z,14.68
2022-12-31T08:56:51.825Z,14.69
2022-12-31T08:57:51.821Z,14.69
2022-12-31T08:58:51.806Z,14.69
2022-12-31T08:59:51.818Z,14.69
2022-12-31T09:00:51.854Z,14.69
2022-12-31T09:01:51.934Z,14.68
2022-12-31T09:02:51.758Z,14.69
2022-12-31T09:03:51.799Z,14.70
2022-12-31T09:04:51.728Z,14.70
2022-12-31T09:05:51.743Z,14.70
2022-12-31T09:06:51.715Z,14.71
2022-12-31T09:07:51.703Z,14.72
2022-12-31T09:08:51.688Z,14.73
2022-12-31T09:09:51.702Z,14.74
2022-12-31T09:10:51.681Z,14.74
2022-12-31T09:11:51.659Z,14.74
2022-12-31T09:12:51.665Z,14.74
2022-12-31T09:13:51.665Z,14.73
2022-12-31T09:14:51.617Z,14.73
2022-12-31T09:15:51.611Z,14.73
2022-12-31T09:16:51.672Z,14.73
2022-12-31T09:17:51.587Z,14.73
2022-12-31T09:18:51.616Z,14.73
2022-12-31T09:19:51.581Z,14.73
2022-12-31T09:20:51.576Z,14.74
2022-12-31T09:21:51.557Z,14.75
2022-12-31T09:22:51.551Z,14.76
2022-12-31T09:23:52.902Z,14.76
2022-12-31T09:24:51.550Z,14.77
2022-12-31T09:25:51.519Z,14.78
2022-12-31T09:26:51.500Z,14.79
2022-12-31T09:27:51.502Z,14.80
2022-12-31T09:28:51.487Z,14.81
2022-12-31T09:29:51.484Z,14.81
2022-12-31T09:30:51.446Z,14.81
2022-12-31T09:31:51.561Z,14.81
2022-12-31T09:32:55.451Z,14.80
2022-12-31T09:33:52.414Z,14.80
2022-12-31T09:34:51.440Z,14.79
2022-12-31T09:35:51.446Z,14.78
2022-12-31T09:36:51.380Z,14.77
2022-12-31T09:37:51.375Z,14.77
2022-12-31T09:38:51.364Z,14.78
2022-12-31T09:39:51.367Z,14.78
2022-12-31T09:40:51.361Z,14.78
2022-12-31T09:41:51.340Z,14.77
2022-12-31T09:42:51.335Z,14.75
2022-12-31T09:43:54.554Z,14.75
2022-12-31T09:44:52.294Z,14.75
2022-12-31T09:45:51.338Z,14.76
2022-12-31T09:46:51.293Z,14.77
2022-12-31T09:47:51.318Z,14.78
2022-12-31T09:48:51.249Z,14.79
2022-12-31T09:49:51.234Z,14.81
2022-12-31T09:50:51.247Z,14.85
2022-12-31T09:51:51.209Z,14.89
2022-12-31T09:52:51.211Z,14.92
2022-12-31T09:53:51.193Z,14.95
2022-12-31T09:54:51.177Z,14.98
2022-12-31T09:55:51.240Z,15.02
2022-12-31T09:56:57.149Z,15.04
2022-12-31T09:57:52.169Z,15.06
2022-12-31T09:58:51.146Z,15.07
2022-12-31T09:59:51.129Z,15.08
2022-12-31T10:00:51.197Z,15.09
2022-12-31T10:01:51.257Z,15.09
2022-12-31T10:02:51.208Z,15.09
2022-12-31T10:03:51.089Z,15.09
2022-12-31T10:04:51.071Z,15.09
2022-12-31T10:05:51.059Z,15.09
2022-12-31T10:06:51.073Z,15.10
2022-12-31T10:07:53.550Z,15.11
2022-12-31T10:08:51.028Z,15.11
2022-12-31T10:09:51.046Z,15.12
2022-12-31T10:10:51.033Z,15.12
2022-12-31T10:11:51.004Z,15.13
2022-12-31T10:12:50.991Z,15.13
2022-12-31T10:13:51.015Z,15.14
2022-12-31T10:14:50.962Z,15.16
2022-12-31T10:15:50.975Z,15.17
2022-12-31T10:16:50.986Z,15.19
2022-12-31T10:17:50.942Z,15.20
2022-12-31T10:18:50.916Z,15.21
2022-12-31T10:19:50.925Z,15.21
2022-12-31T10:20:50.913Z,15.21
2022-12-31T10:21:50.903Z,15.22
2022-12-31T10:22:50.879Z,15.22
2022-12-31T10:23:50.866Z,15.21
2022-12-31T10:24:50.863Z,15.20
2022-12-31T10:25:51.050Z,15.19
2022-12-31T10:26:53.405Z,15.17
2022-12-31T10:27:50.834Z,15.17
2022-12-31T10:28:50.821Z,15.18
2022-12-31T10:29:50.803Z,15.19
2022-12-31T10:30:50.881Z,15.20
2022-12-31T10:31:50.819Z,15.22
2022-12-31T10:32:50.768Z,15.23
2022-12-31T10:33:50.749Z,15.24
2022-12-31T10:34:50.752Z,15.25
2022-12-31T10:35:50.748Z,15.25
2022-12-31T10:36:50.731Z,15.26
2022-12-31T10:37:50.714Z,15.25
2022-12-31T10:38:50.707Z,15.25
2022-12-31T10:39:50.694Z,15.23
2022-12-31T10:40:50.691Z,15.23
2022-12-31T10:41:50.706Z,15.23
2022-12-31T10:42:50.680Z,15.24
2022-12-31T10:43:50.643Z,15.24
2022-12-31T10:44:50.660Z,15.24
2022-12-31T10:45:50.678Z,15.24
2022-12-31T10:46:50.688Z,15.24
2022-12-31T10:47:50.615Z,15.25
2022-12-31T10:48:50.595Z,15.27
2022-12-31T10:49:50.585Z,15.28
2022-12-31T10:50:50.586Z,15.29
2022-12-31T10:51:50.558Z,15.30
2022-12-31T10:52:50.598Z,15.30
2022-12-31T10:53:50.546Z,15.30
2022-12-31T10:54:50.529Z,15.31
2022-12-31T10:55:50.513Z,15.32
2022-12-31T10:56:50.509Z,15.32
2022-12-31T10:57:50.518Z,15.32
2022-12-31T10:58:50.480Z,15.33
2022-12-31T10:59:50.476Z,15.33
2022-12-31T11:00:50.470Z,15.34
2022-12-31T11:01:50.650Z,15.35
2022-12-31T11:02:50.481Z,15.36
2022-12-31T11:03:50.419Z,15.36
2022-12-31T11:04:50.431Z,15.37
2022-12-31T11:05:50.399Z,15.37
2022-12-31T11:06:50.393Z,15.37
2022-12-31T11:07:50.397Z,15.36
2022-12-31T11:08:50.371Z,15.37
2022-12-31T11:09:50.363Z,15.37
2022-12-31T11:10:50.360Z,15.38
2022-12-31T11:11:50.356Z,15.39
2022-12-31T11:12:50.319Z,15.39
2022-12-31T11:13:50.318Z,15.41
2022-12-31T11:14:50.319Z,15.42
2022-12-31T11:15:50.608Z,15.44
2022-12-31T11:16:50.311Z,15.45
2022-12-31T11:17:50.295Z,15.46
2022-12-31T11:18:50.285Z,15.47
2022-12-31T11:19:50.260Z,15.46
2022-12-31T11:20:50.259Z,15.46
2022-12-31T11:21:50.241Z,15.47
2022-12-31T11:22:50.240Z,15.47
2022-12-31T11:23:50.209Z,15.48
2022-12-31T11:24:50.225Z,15.49
2022-12-31T11:25:50.179Z,15.51
2022-12-31T11:26:50.191Z,15.51
2022-12-31T11:27:50.219Z,15.51
2022-12-31T11:28:50.170Z,15.52
2022-12-31T11:29:50.151Z,15.51
2022-12-31T11:30:50.227Z,15.52
2022-12-31T11:31:50.126Z,15.52
2022-12-31T11:32:50.116Z,15.53
2022-12-31T11:33:50.556Z,15.54
2022-12-31T11:34:50.092Z,15.55
2022-12-31T11:35:50.073Z,15.55
2022-12-31T11:36:50.064Z,15.56
2022-12-31T11:37:50.069Z,15.56
2022-12-31T11:38:50.080Z,15.56
2022-12-31T11:39:50.047Z,15.57
2022-12-31T11:40:50.026Z,15.59
2022-12-31T11:41:50.023Z,15.61
2022-12-31T11:42:50.003Z,15.64
2022-12-31T11:43:49.987Z,15.67
2022-12-31T11:44:50.006Z,15.71
2022-12-31T11:45:50.810Z,15.74
2022-12-31T11:46:50.005Z,15.77
2022-12-31T11:48:28.404Z,15.79
2022-12-31T11:48:50.963Z,15.80
2022-12-31T11:49:49.929Z,15.81
2022-12-31T11:50:49.985Z,15.81
2022-12-31T11:51:50.796Z,15.81
2022-12-31T11:52:49.891Z,15.80
2022-12-31T11:53:49.949Z,15.80
2022-12-31T11:54:49.891Z,15.79
2022-12-31T11:55:49.865Z,15.79
2022-12-31T11:56:49.839Z,15.79
2022-12-31T11:57:49.841Z,15.78
2022-12-31T11:58:49.855Z,15.79
2022-12-31T11:59:49.825Z,15.79
2022-12-31T12:00:49.949Z,15.79
2022-12-31T12:01:49.794Z,15.79
2022-12-31T12:02:53.799Z,15.78
2022-12-31T12:03:52.187Z,15.77
2022-12-31T12:04:49.774Z,15.77
2022-12-31T12:05:49.749Z,15.76
2022-12-31T12:06:49.741Z,15.75
2022-12-31T12:07:49.727Z,15.74
2022-12-31T12:08:49.733Z,15.72
2022-12-31T12:09:49.737Z,15.71
2022-12-31T12:10:49.716Z,15.70
2022-12-31T12:11:49.678Z,15.69
2022-12-31T12:12:49.680Z,15.68
2022-12-31T12:13:49.670Z,15.68
2022-12-31T12:14:49.653Z,15.68
2022-12-31T12:15:49.694Z,15.69
2022-12-31T12:16:49.627Z,15.69
2022-12-31T12:17:49.674Z,15.70
2022-12-31T12:18:49.595Z,15.70
2022-12-31T12:19:49.591Z,15.70
2022-12-31T12:20:49.574Z,15.70
2022-12-31T12:21:49.588Z,15.69
2022-12-31T12:22:49.674Z,15.69
2022-12-31T12:23:49.546Z,15.70
2022-12-31T12:24:49.537Z,15.70
2022-12-31T12:25:49.528Z,15.71
2022-12-31T12:26:49.556Z,15.70
2022-12-31T12:27:49.510Z,15.69
2022-12-31T12:28:49.503Z,15.69
2022-12-31T12:29:49.498Z,15.68
2022-12-31T12:30:49.498Z,15.68
2022-12-31T12:31:49.641Z,15.68
2022-12-31T12:32:50.440Z,15.68
2022-12-31T12:33:49.457Z,15.68
2022-12-31T12:34:50.277Z,15.69
2022-12-31T12:35:49.417Z,15.69
2022-12-31T12:36:49.447Z,15.69
2022-12-31T12:37:49.418Z,15.69
2022-12-31T12:38:49.375Z,15.70
2022-12-31T12:39:49.379Z,15.71
2022-12-31T12:40:49.362Z,15.72
2022-12-31T12:41:49.362Z,15.74
2022-12-31T12:42:49.336Z,15.76
2022-12-31T12:43:49.349Z,15.78
2022-12-31T12:44:49.345Z,15.79
2022-12-31T12:45:52.409Z,15.79
2022-12-31T12:46:49.368Z,15.78
2022-12-31T12:47:49.292Z,15.77
2022-12-31T12:48:49.385Z,15.76
2022-12-31T12:49:49.274Z,15.76
2022-12-31T12:50:49.267Z,15.76
2022-12-31T12:51:49.259Z,15.78
2022-12-31T12:52:49.237Z,15.80